sensor_id;sensor_type;location;lat;lon;timestamp;temperature;humidity
69533;DHT22;56729;52.036;5.332;2023-02-26T00:00:39;1.30;99.90
69533;DHT22;56729;52.036;5.332;2023-02-26T00:01:41;1.30;99.90
69533;DHT22;56729;52.036;5.332;2023-02-26T00:02:43;1.20;99.90
69533;DHT22;56729;52.036;5.332;2023-02-26T00:03:53;1.20;99.90
69533;DHT22;56729;52.036;5.332;2023-02-26T00:04:55;1.20;99.90
69533;DHT22;56729;52.036;5.332;2023-02-26T00:06:00;1.20;99.90
69533;DHT22;56729;52.036;5.332;2023-02-26T00:07:03;1.20;99.90
69533;DHT22;56729;52.036;5.332;2023-02-26T00:08:05;1.20;99.90
69533;DHT22;56729;52.036;5.332;2023-02-26T00:09:07;1.20;99.90
69533;DHT22;56729;52.036;5.332;2023-02-26T00:10:11;1.20;99.90
69533;DHT22;56729;52.036;5.332;2023-02-26T00:11:14;1.20;99.90
69533;DHT22;56729;52.036;5.332;2023-02-26T00:12:16;1.20;99.90
69533;DHT22;56729;52.036;5.332;2023-02-26T00:13:18;1.20;99.90
69533;DHT22;56729;52.036;5.332;2023-02-26T00:14:20;1.20;99.90
69533;DHT22;56729;52.036;5.332;2023-02-26T00:15:22;1.20;99.90
69533;DHT22;56729;52.036;5.332;2023-02-26T00:16:28;1.20;99.90
69533;DHT22;56729;52.036;5.332;2023-02-26T00:17:41;1.20;99.90
69533;DHT22;56729;52.036;5.332;2023-02-26T00:18:44;1.20;99.90
69533;DHT22;56729;52.036;5.332;2023-02-26T00:19:46;1.20;99.90
69533;DHT22;56729;52.036;5.332;2023-02-26T00:20:48;1.20;99.90
69533;DHT22;56729;52.036;5.332;2023-02-26T00:21:51;1.20;99.90
69533;DHT22;56729;52.036;5.332;2023-02-26T00:22:53;1.20;99.90
69533;DHT22;56729;52.036;5.332;2023-02-26T00:23:55;1.20;99.90
69533;DHT22;56729;52.036;5.332;2023-02-26T00:24:57;1.20;99.90
69533;DHT22;56729;52.036;5.332;2023-02-26T00:25:59;1.20;99.90
69533;DHT22;56729;52.036;5.332;2023-02-26T00:27:00;1.20;99.90
69533;DHT22;56729;52.036;5.332;2023-02-26T00:28:04;1.20;99.90
69533;DHT22;56729;52.036;5.332;2023-02-26T00:29:06;1.20;99.90
69533;DHT22;56729;52.036;5.332;2023-02-26T00:30:09;1.20;99.90
69533;DHT22;56729;52.036;5.332;2023-02-26T00:31:13;1.20;99.90
69533;DHT22;56729;52.036;5.332;2023-02-26T00:32:16;1.20;99.90
69533;DHT22;56729;52.036;5.332;2023-02-26T00:33:19;1.20;99.90
69533;DHT22;56729;52.036;5.332;2023-02-26T00:34:21;1.20;99.90
69533;DHT22;56729;52.036;5.332;2023-02-26T00:35:23;1.20;99.90
69533;DHT22;56729;52.036;5.332;2023-02-26T00:37:54;1.20;99.90
69533;DHT22;56729;52.036;5.332;2023-02-26T00:41:35;1.20;99.90
69533;DHT22;56729;52.036;5.332;2023-02-26T00:42:37;1.20;99.90
69533;DHT22;56729;52.036;5.332;2023-02-26T00:43:40;1.20;99.90
69533;DHT22;56729;52.036;5.332;2023-02-26T00:44:42;1.20;99.90
69533;DHT22;56729;52.036;5.332;2023-02-26T00:45:54;1.20;99.90
69533;DHT22;56729;52.036;5.332;2023-02-26T00:47:08;1.20;99.90
69533;DHT22;56729;52.036;5.332;2023-02-26T00:49:12;1.20;99.90
69533;DHT22;56729;52.036;5.332;2023-02-26T00:50:19;1.10;99.90
69533;DHT22;56729;52.036;5.332;2023-02-26T00:52:04;1.20;99.90
69533;DHT22;56729;52.036;5.332;2023-02-26T00:53:23;1.20;99.90
69533;DHT22;56729;52.036;5.332;2023-02-26T00:54:29;1.20;99.90
69533;DHT22;56729;52.036;5.332;2023-02-26T00:55:31;1.20;99.90
69533;DHT22;56729;52.036;5.332;2023-02-26T00:56:35;1.20;99.90
69533;DHT22;56729;52.036;5.332;2023-02-26T00:57:38;1.20;99.90
69533;DHT22;56729;52.036;5.332;2023-02-26T00:58:40;1.30;99.90
69533;DHT22;56729;52.036;5.332;2023-02-26T00:59:42;1.30;99.90
69533;DHT22;56729;52.036;5.332;2023-02-26T01:00:44;1.30;99.90
69533;DHT22;56729;52.036;5.332;2023-02-26T01:01:46;1.30;99.90
69533;DHT22;56729;52.036;5.332;2023-02-26T01:02:49;1.30;99.90
69533;DHT22;56729;52.036;5.332;2023-02-26T01:03:53;1.30;99.90
69533;DHT22;56729;52.036;5.332;2023-02-26T01:04:55;1.40;99.90
69533;DHT22;56729;52.036;5.332;2023-02-26T01:05:57;1.40;99.90
69533;DHT22;56729;52.036;5.332;2023-02-26T01:06:59;1.40;99.90
69533;DHT22;56729;52.036;5.332;2023-02-26T01:08:08;1.40;99.90
69533;DHT22;56729;52.036;5.332;2023-02-26T01:09:25;1.40;99.90
69533;DHT22;56729;52.036;5.332;2023-02-26T01:10:28;1.50;99.90
69533;DHT22;56729;52.036;5.332;2023-02-26T01:11:32;1.50;99.90
69533;DHT22;56729;52.036;5.332;2023-02-26T01:12:35;1.50;99.90
69533;DHT22;56729;52.036;5.332;2023-02-26T01:13:37;1.50;99.90
69533;DHT22;56729;52.036;5.332;2023-02-26T01:14:39;1.50;99.90
69533;DHT22;56729;52.036;5.332;2023-02-26T01:15:47;1.50;99.90
69533;DHT22;56729;52.036;5.332;2023-02-26T01:16:58;1.50;99.90
69533;DHT22;56729;52.036;5.332;2023-02-26T01:18:19;1.50;99.90
69533;DHT22;56729;52.036;5.332;2023-02-26T01:19:33;1.50;99.90
69533;DHT22;56729;52.036;5.332;2023-02-26T01:20:50;1.50;99.90
69533;DHT22;56729;52.036;5.332;2023-02-26T01:22:00;1.50;99.90
69533;DHT22;56729;52.036;5.332;2023-02-26T01:23:08;1.50;99.90
69533;DHT22;56729;52.036;5.332;2023-02-26T01:24:15;1.50;99.90
69533;DHT22;56729;52.036;5.332;2023-02-26T01:25:24;1.50;99.90
69533;DHT22;56729;52.036;5.332;2023-02-26T01:26:27;1.50;99.90
69533;DHT22;56729;52.036;5.332;2023-02-26T01:27:31;1.50;99.90
69533;DHT22;56729;52.036;5.332;2023-02-26T01:28:33;1.50;99.90
69533;DHT22;56729;52.036;5.332;2023-02-26T01:29:35;1.50;99.90
69533;DHT22;56729;52.036;5.332;2023-02-26T01:30:38;1.50;99.90
69533;DHT22;56729;52.036;5.332;2023-02-26T01:33:24;1.50;99.90
69533;DHT22;56729;52.036;5.332;2023-02-26T01:34:31;1.60;99.90
69533;DHT22;56729;52.036;5.332;2023-02-26T01:35:40;1.60;99.90
69533;DHT22;56729;52.036;5.332;2023-02-26T01:37:23;1.60;99.90
69533;DHT22;56729;52.036;5.332;2023-02-26T01:39:39;1.60;99.90
69533;DHT22;56729;52.036;5.332;2023-02-26T01:40:50;1.60;99.90
69533;DHT22;56729;52.036;5.332;2023-02-26T01:42:15;1.60;99.90
69533;DHT22;56729;52.036;5.332;2023-02-26T01:43:47;1.60;99.90
69533;DHT22;56729;52.036;5.332;2023-02-26T01:44:54;1.60;99.90
69533;DHT22;56729;52.036;5.332;2023-02-26T01:46:17;1.60;99.90
69533;DHT22;56729;52.036;5.332;2023-02-26T01:48:57;1.60;99.90
69533;DHT22;56729;52.036;5.332;2023-02-26T01:50:13;1.60;99.90
69533;DHT22;56729;52.036;5.332;2023-02-26T01:51:16;1.50;99.90
69533;DHT22;56729;52.036;5.332;2023-02-26T01:53:34;1.60;99.90
69533;DHT22;56729;52.036;5.332;2023-02-26T01:54:37;1.60;99.90
69533;DHT22;56729;52.036;5.332;2023-02-26T01:55:42;1.50;99.90
69533;DHT22;56729;52.036;5.332;2023-02-26T01:56:48;1.50;99.90
69533;DHT22;56729;52.036;5.332;2023-02-26T01:57:55;1.50;99.90
69533;DHT22;56729;52.036;5.332;2023-02-26T01:58:58;1.50;99.90
69533;DHT22;56729;52.036;5.332;2023-02-26T02:00:01;1.50;99.90
69533;DHT22;56729;52.036;5.332;2023-02-26T02:01:12;1.50;99.90
69533;DHT22;56729;52.036;5.332;2023-02-26T02:02:20;1.50;99.90
69533;DHT22;56729;52.036;5.332;2023-02-26T02:03:25;1.50;99.90
69533;DHT22;56729;52.036;5.332;2023-02-26T02:04:29;1.50;99.90
69533;DHT22;56729;52.036;5.332;2023-02-26T02:05:41;1.50;99.90
69533;DHT22;56729;52.036;5.332;2023-02-26T02:06:44;1.50;99.90
69533;DHT22;56729;52.036;5.332;2023-02-26T02:07:47;1.50;99.90
69533;DHT22;56729;52.036;5.332;2023-02-26T02:08:48;1.50;99.90
69533;DHT22;56729;52.036;5.332;2023-02-26T02:09:50;1.40;99.90
69533;DHT22;56729;52.036;5.332;2023-02-26T02:10:54;1.40;99.90
69533;DHT22;56729;52.036;5.332;2023-02-26T02:13:27;1.50;99.90
69533;DHT22;56729;52.036;5.332;2023-02-26T02:20:48;1.40;99.90
69533;DHT22;56729;52.036;5.332;2023-02-26T02:23:32;1.40;99.90
69533;DHT22;56729;52.036;5.332;2023-02-26T02:28:04;1.30;99.90
69533;DHT22;56729;52.036;5.332;2023-02-26T02:33:16;1.30;99.90
69533;DHT22;56729;52.036;5.332;2023-02-26T02:34:26;1.30;99.90
69533;DHT22;56729;52.036;5.332;2023-02-26T02:35:39;1.20;99.90
69533;DHT22;56729;52.036;5.332;2023-02-26T02:36:47;1.20;99.90
69533;DHT22;56729;52.036;5.332;2023-02-26T02:38:10;1.20;99.90
69533;DHT22;56729;52.036;5.332;2023-02-26T02:40:26;1.20;99.90
69533;DHT22;56729;52.036;5.332;2023-02-26T02:41:36;1.20;99.90
69533;DHT22;56729;52.036;5.332;2023-02-26T02:43:50;1.20;99.90
69533;DHT22;56729;52.036;5.332;2023-02-26T02:44:58;1.20;99.90
69533;DHT22;56729;52.036;5.332;2023-02-26T02:46:06;1.10;99.90
69533;DHT22;56729;52.036;5.332;2023-02-26T02:47:10;1.10;99.90
69533;DHT22;56729;52.036;5.332;2023-02-26T02:48:28;1.10;99.90
69533;DHT22;56729;52.036;5.332;2023-02-26T02:49:36;1.10;99.90
69533;DHT22;56729;52.036;5.332;2023-02-26T02:50:49;1.10;99.90
69533;DHT22;56729;52.036;5.332;2023-02-26T02:52:01;1.10;99.90
69533;DHT22;56729;52.036;5.332;2023-02-26T02:53:15;1.10;99.90
69533;DHT22;56729;52.036;5.332;2023-02-26T02:54:19;1.10;99.90
69533;DHT22;56729;52.036;5.332;2023-02-26T02:55:33;1.00;99.90
69533;DHT22;56729;52.036;5.332;2023-02-26T02:56:48;1.10;99.90
69533;DHT22;56729;52.036;5.332;2023-02-26T02:58:22;1.00;99.90
69533;DHT22;56729;52.036;5.332;2023-02-26T02:59:31;1.00;99.90
69533;DHT22;56729;52.036;5.332;2023-02-26T03:00:37;1.00;99.90
69533;DHT22;56729;52.036;5.332;2023-02-26T03:01:41;1.00;99.90
69533;DHT22;56729;52.036;5.332;2023-02-26T03:04:09;1.00;99.90
69533;DHT22;56729;52.036;5.332;2023-02-26T03:05:13;1.00;99.90
69533;DHT22;56729;52.036;5.332;2023-02-26T03:06:15;1.00;99.90
69533;DHT22;56729;52.036;5.332;2023-02-26T03:07:18;0.90;99.90
69533;DHT22;56729;52.036;5.332;2023-02-26T03:08:28;0.90;99.90
69533;DHT22;56729;52.036;5.332;2023-02-26T03:09:32;1.00;99.90
69533;DHT22;56729;52.036;5.332;2023-02-26T03:10:34;0.90;99.90
69533;DHT22;56729;52.036;5.332;2023-02-26T03:11:37;0.90;99.90
69533;DHT22;56729;52.036;5.332;2023-02-26T03:12:40;0.90;99.90
69533;DHT22;56729;52.036;5.332;2023-02-26T03:13:42;0.90;99.90
69533;DHT22;56729;52.036;5.332;2023-02-26T03:14:51;0.90;99.90
69533;DHT22;56729;52.036;5.332;2023-02-26T03:17:16;0.90;99.90
69533;DHT22;56729;52.036;5.332;2023-02-26T03:19:55;0.90;99.90
69533;DHT22;56729;52.036;5.332;2023-02-26T03:21:18;0.80;99.90
69533;DHT22;56729;52.036;5.332;2023-02-26T03:24:05;0.90;99.90
69533;DHT22;56729;52.036;5.332;2023-02-26T03:25:15;0.80;99.90
69533;DHT22;56729;52.036;5.332;2023-02-26T03:26:26;0.80;99.90
69533;DHT22;56729;52.036;5.332;2023-02-26T03:28:53;0.80;99.90
69533;DHT22;56729;52.036;5.332;2023-02-26T03:31:30;0.80;99.90
69533;DHT22;56729;52.036;5.332;2023-02-26T03:32:59;0.80;99.90
69533;DHT22;56729;52.036;5.332;2023-02-26T03:34:13;0.80;99.90
69533;DHT22;56729;52.036;5.332;2023-02-26T03:36:55;0.70;99.90
69533;DHT22;56729;52.036;5.332;2023-02-26T03:38:08;0.70;99.90
69533;DHT22;56729;52.036;5.332;2023-02-26T03:39:38;0.70;99.90
69533;DHT22;56729;52.036;5.332;2023-02-26T03:40:56;0.70;99.90
69533;DHT22;56729;52.036;5.332;2023-02-26T03:42:08;0.70;99.90
69533;DHT22;56729;52.036;5.332;2023-02-26T03:43:38;0.70;99.90
69533;DHT22;56729;52.036;5.332;2023-02-26T03:44:58;0.70;99.90
69533;DHT22;56729;52.036;5.332;2023-02-26T03:46:05;0.60;99.90
69533;DHT22;56729;52.036;5.332;2023-02-26T03:47:12;0.60;99.90
69533;DHT22;56729;52.036;5.332;2023-02-26T03:48:20;0.60;99.90
69533;DHT22;56729;52.036;5.332;2023-02-26T03:49:30;0.60;99.90
69533;DHT22;56729;52.036;5.332;2023-02-26T03:50:42;0.60;99.90
69533;DHT22;56729;52.036;5.332;2023-02-26T03:52:06;0.50;99.90
69533;DHT22;56729;52.036;5.332;2023-02-26T03:53:35;0.50;99.90
69533;DHT22;56729;52.036;5.332;2023-02-26T03:55:08;0.50;99.90
69533;DHT22;56729;52.036;5.332;2023-02-26T03:56:44;0.50;99.90
69533;DHT22;56729;52.036;5.332;2023-02-26T03:58:12;0.50;99.90
69533;DHT22;56729;52.036;5.332;2023-02-26T03:59:26;0.50;99.90
69533;DHT22;56729;52.036;5.332;2023-02-26T04:00:53;0.50;99.90
69533;DHT22;56729;52.036;5.332;2023-02-26T04:02:15;0.50;99.90
69533;DHT22;56729;52.036;5.332;2023-02-26T04:03:52;0.50;99.90
69533;DHT22;56729;52.036;5.332;2023-02-26T04:06:34;0.60;99.90
69533;DHT22;56729;52.036;5.332;2023-02-26T04:07:38;0.60;99.90
69533;DHT22;56729;52.036;5.332;2023-02-26T04:08:41;0.60;99.90
69533;DHT22;56729;52.036;5.332;2023-02-26T04:09:46;0.60;99.90
69533;DHT22;56729;52.036;5.332;2023-02-26T04:10:58;0.60;99.90
69533;DHT22;56729;52.036;5.332;2023-02-26T04:12:01;0.50;99.90
69533;DHT22;56729;52.036;5.332;2023-02-26T04:13:04;0.50;99.90
69533;DHT22;56729;52.036;5.332;2023-02-26T04:14:07;0.60;99.90
69533;DHT22;56729;52.036;5.332;2023-02-26T04:15:13;0.60;99.90
69533;DHT22;56729;52.036;5.332;2023-02-26T04:16:17;0.60;99.90
69533;DHT22;56729;52.036;5.332;2023-02-26T04:17:20;0.60;99.90
69533;DHT22;56729;52.036;5.332;2023-02-26T04:18:22;0.60;99.90
69533;DHT22;56729;52.036;5.332;2023-02-26T04:19:26;0.60;99.90
69533;DHT22;56729;52.036;5.332;2023-02-26T04:20:28;0.60;99.90
69533;DHT22;56729;52.036;5.332;2023-02-26T04:21:30;0.60;99.90
69533;DHT22;56729;52.036;5.332;2023-02-26T04:22:32;0.60;99.90
69533;DHT22;56729;52.036;5.332;2023-02-26T04:23:35;0.60;99.90
69533;DHT22;56729;52.036;5.332;2023-02-26T04:24:37;0.60;99.90
69533;DHT22;56729;52.036;5.332;2023-02-26T04:25:40;0.60;99.90
69533;DHT22;56729;52.036;5.332;2023-02-26T04:26:44;0.60;99.90
69533;DHT22;56729;52.036;5.332;2023-02-26T04:27:46;0.60;99.90
69533;DHT22;56729;52.036;5.332;2023-02-26T04:28:48;0.60;99.90
69533;DHT22;56729;52.036;5.332;2023-02-26T04:29:50;0.60;99.90
69533;DHT22;56729;52.036;5.332;2023-02-26T04:30:51;0.60;99.90
69533;DHT22;56729;52.036;5.332;2023-02-26T04:31:54;0.60;99.90
69533;DHT22;56729;52.036;5.332;2023-02-26T04:32:56;0.60;99.90
69533;DHT22;56729;52.036;5.332;2023-02-26T04:33:59;0.60;99.90
69533;DHT22;56729;52.036;5.332;2023-02-26T04:35:01;0.60;99.90
69533;DHT22;56729;52.036;5.332;2023-02-26T04:36:04;0.70;99.90
69533;DHT22;56729;52.036;5.332;2023-02-26T04:37:06;0.70;99.90
69533;DHT22;56729;52.036;5.332;2023-02-26T04:38:09;0.70;99.90
69533;DHT22;56729;52.036;5.332;2023-02-26T04:39:11;0.60;99.90
69533;DHT22;56729;52.036;5.332;2023-02-26T04:40:14;0.70;99.90
69533;DHT22;56729;52.036;5.332;2023-02-26T04:41:16;0.70;99.90
69533;DHT22;56729;52.036;5.332;2023-02-26T04:42:21;0.60;99.90
69533;DHT22;56729;52.036;5.332;2023-02-26T04:43:23;0.70;99.90
69533;DHT22;56729;52.036;5.332;2023-02-26T04:44:44;0.70;99.90
69533;DHT22;56729;52.036;5.332;2023-02-26T04:45:47;0.70;99.90
69533;DHT22;56729;52.036;5.332;2023-02-26T04:46:49;0.60;99.90
69533;DHT22;56729;52.036;5.332;2023-02-26T04:47:51;0.60;99.90
69533;DHT22;56729;52.036;5.332;2023-02-26T04:48:53;0.70;99.90
69533;DHT22;56729;52.036;5.332;2023-02-26T04:49:55;0.60;99.90
69533;DHT22;56729;52.036;5.332;2023-02-26T04:50:58;0.60;99.90
69533;DHT22;56729;52.036;5.332;2023-02-26T04:52:00;0.60;99.90
69533;DHT22;56729;52.036;5.332;2023-02-26T04:53:03;0.60;99.90
69533;DHT22;56729;52.036;5.332;2023-02-26T04:54:05;0.60;99.90
69533;DHT22;56729;52.036;5.332;2023-02-26T04:55:07;0.60;99.90
69533;DHT22;56729;52.036;5.332;2023-02-26T04:56:12;0.60;99.90
69533;DHT22;56729;52.036;5.332;2023-02-26T04:57:13;0.60;99.90
69533;DHT22;56729;52.036;5.332;2023-02-26T04:58:16;0.60;99.90
69533;DHT22;56729;52.036;5.332;2023-02-26T04:59:18;0.60;99.90
69533;DHT22;56729;52.036;5.332;2023-02-26T05:00:20;0.60;99.90
69533;DHT22;56729;52.036;5.332;2023-02-26T05:01:22;0.60;99.90
69533;DHT22;56729;52.036;5.332;2023-02-26T05:02:24;0.60;99.90
69533;DHT22;56729;52.036;5.332;2023-02-26T05:03:26;0.60;99.90
69533;DHT22;56729;52.036;5.332;2023-02-26T05:04:28;0.60;99.90
69533;DHT22;56729;52.036;5.332;2023-02-26T05:05:33;0.60;99.90
69533;DHT22;56729;52.036;5.332;2023-02-26T05:06:35;0.60;99.90
69533;DHT22;56729;52.036;5.332;2023-02-26T05:07:37;0.60;99.90
69533;DHT22;56729;52.036;5.332;2023-02-26T05:08:39;0.60;99.90
69533;DHT22;56729;52.036;5.332;2023-02-26T05:09:44;0.60;99.90
69533;DHT22;56729;52.036;5.332;2023-02-26T05:10:46;0.50;99.90
69533;DHT22;56729;52.036;5.332;2023-02-26T05:11:48;0.50;99.90
69533;DHT22;56729;52.036;5.332;2023-02-26T05:12:50;0.50;99.90
69533;DHT22;56729;52.036;5.332;2023-02-26T05:13:53;0.50;99.90
69533;DHT22;56729;52.036;5.332;2023-02-26T05:14:55;0.50;99.90
69533;DHT22;56729;52.036;5.332;2023-02-26T05:15:57;0.50;99.90
69533;DHT22;56729;52.036;5.332;2023-02-26T05:16:59;0.50;99.90
69533;DHT22;56729;52.036;5.332;2023-02-26T05:18:00;0.50;99.90
69533;DHT22;56729;52.036;5.332;2023-02-26T05:19:03;0.50;99.90
69533;DHT22;56729;52.036;5.332;2023-02-26T05:20:06;0.50;99.90
69533;DHT22;56729;52.036;5.332;2023-02-26T05:21:12;0.50;99.90
69533;DHT22;56729;52.036;5.332;2023-02-26T05:22:14;0.50;99.90
69533;DHT22;56729;52.036;5.332;2023-02-26T05:23:16;0.50;99.90
69533;DHT22;56729;52.036;5.332;2023-02-26T05:24:18;0.50;99.90
69533;DHT22;56729;52.036;5.332;2023-02-26T05:25:20;0.50;99.90
69533;DHT22;56729;52.036;5.332;2023-02-26T05:26:22;0.50;99.90
69533;DHT22;56729;52.036;5.332;2023-02-26T05:27:25;0.50;99.90
69533;DHT22;56729;52.036;5.332;2023-02-26T05:28:27;0.50;99.90
69533;DHT22;56729;52.036;5.332;2023-02-26T05:29:29;0.50;99.90
69533;DHT22;56729;52.036;5.332;2023-02-26T05:30:31;0.50;99.90
69533;DHT22;56729;52.036;5.332;2023-02-26T05:31:33;0.50;99.90
69533;DHT22;56729;52.036;5.332;2023-02-26T05:32:35;0.50;99.90
69533;DHT22;56729;52.036;5.332;2023-02-26T05:33:37;0.50;99.90
69533;DHT22;56729;52.036;5.332;2023-02-26T05:34:39;0.50;99.90
69533;DHT22;56729;52.036;5.332;2023-02-26T05:35:40;0.50;99.90
69533;DHT22;56729;52.036;5.332;2023-02-26T05:36:44;0.50;99.90
69533;DHT22;56729;52.036;5.332;2023-02-26T05:37:46;0.40;99.90
69533;DHT22;56729;52.036;5.332;2023-02-26T05:38:49;0.40;99.90
69533;DHT22;56729;52.036;5.332;2023-02-26T05:39:52;0.40;99.90
69533;DHT22;56729;52.036;5.332;2023-02-26T05:40:58;0.40;99.90
69533;DHT22;56729;52.036;5.332;2023-02-26T05:42:00;0.40;99.90
69533;DHT22;56729;52.036;5.332;2023-02-26T05:43:02;0.40;99.90
69533;DHT22;56729;52.036;5.332;2023-02-26T05:44:05;0.40;99.90
69533;DHT22;56729;52.036;5.332;2023-02-26T05:45:08;0.40;99.90
69533;DHT22;56729;52.036;5.332;2023-02-26T05:46:10;0.40;99.90
69533;DHT22;56729;52.036;5.332;2023-02-26T05:47:12;0.40;99.90
69533;DHT22;56729;52.036;5.332;2023-02-26T05:48:14;0.40;99.90
69533;DHT22;56729;52.036;5.332;2023-02-26T05:49:16;0.40;99.90
69533;DHT22;56729;52.036;5.332;2023-02-26T05:50:18;0.40;99.90
69533;DHT22;56729;52.036;5.332;2023-02-26T05:51:20;0.40;99.90
69533;DHT22;56729;52.036;5.332;2023-02-26T05:52:24;0.40;99.90
69533;DHT22;56729;52.036;5.332;2023-02-26T05:53:26;0.40;99.90
69533;DHT22;56729;52.036;5.332;2023-02-26T05:54:28;0.30;99.90
69533;DHT22;56729;52.036;5.332;2023-02-26T05:55:30;0.30;99.90
69533;DHT22;56729;52.036;5.332;2023-02-26T05:56:32;0.30;99.90
69533;DHT22;56729;52.036;5.332;2023-02-26T05:57:34;0.30;99.90
69533;DHT22;56729;52.036;5.332;2023-02-26T05:58:36;0.30;99.90
69533;DHT22;56729;52.036;5.332;2023-02-26T05:59:38;0.30;99.90
69533;DHT22;56729;52.036;5.332;2023-02-26T06:00:40;0.30;99.90
69533;DHT22;56729;52.036;5.332;2023-02-26T06:01:42;0.30;99.90
69533;DHT22;56729;52.036;5.332;2023-02-26T06:02:44;0.30;99.90
69533;DHT22;56729;52.036;5.332;2023-02-26T06:03:46;0.30;99.90
69533;DHT22;56729;52.036;5.332;2023-02-26T06:04:48;0.30;99.90
69533;DHT22;56729;52.036;5.332;2023-02-26T06:05:50;0.30;99.90
69533;DHT22;56729;52.036;5.332;2023-02-26T06:06:52;0.30;99.90
69533;DHT22;56729;52.036;5.332;2023-02-26T06:07:54;0.30;99.90
69533;DHT22;56729;52.036;5.332;2023-02-26T06:08:56;0.30;99.90
69533;DHT22;56729;52.036;5.332;2023-02-26T06:09:58;0.30;99.90
69533;DHT22;56729;52.036;5.332;2023-02-26T06:11:02;0.30;99.90
69533;DHT22;56729;52.036;5.332;2023-02-26T06:12:04;0.30;99.90
69533;DHT22;56729;52.036;5.332;2023-02-26T06:13:07;0.20;99.90
69533;DHT22;56729;52.036;5.332;2023-02-26T06:14:09;0.20;99.90
69533;DHT22;56729;52.036;5.332;2023-02-26T06:15:12;0.20;99.90
69533;DHT22;56729;52.036;5.332;2023-02-26T06:16:14;0.20;99.90
69533;DHT22;56729;52.036;5.332;2023-02-26T06:17:16;0.20;99.90
69533;DHT22;56729;52.036;5.332;2023-02-26T06:18:18;0.20;99.90
69533;DHT22;56729;52.036;5.332;2023-02-26T06:19:20;0.20;99.90
69533;DHT22;56729;52.036;5.332;2023-02-26T06:20:22;0.20;99.90
69533;DHT22;56729;52.036;5.332;2023-02-26T06:21:24;0.20;99.90
69533;DHT22;56729;52.036;5.332;2023-02-26T06:22:26;0.20;99.90
69533;DHT22;56729;52.036;5.332;2023-02-26T06:23:29;0.20;99.90
69533;DHT22;56729;52.036;5.332;2023-02-26T06:24:32;0.20;99.90
69533;DHT22;56729;52.036;5.332;2023-02-26T06:25:33;0.20;99.90
69533;DHT22;56729;52.036;5.332;2023-02-26T06:26:35;0.20;99.90
69533;DHT22;56729;52.036;5.332;2023-02-26T06:27:37;0.20;99.90
69533;DHT22;56729;52.036;5.332;2023-02-26T06:28:39;0.20;99.90
69533;DHT22;56729;52.036;5.332;2023-02-26T06:29:42;0.20;99.90
69533;DHT22;56729;52.036;5.332;2023-02-26T06:30:45;0.20;99.90
69533;DHT22;56729;52.036;5.332;2023-02-26T06:31:47;0.20;99.90
69533;DHT22;56729;52.036;5.332;2023-02-26T06:32:49;0.20;99.90
69533;DHT22;56729;52.036;5.332;2023-02-26T06:33:51;0.20;99.90
69533;DHT22;56729;52.036;5.332;2023-02-26T06:34:54;0.20;99.90
69533;DHT22;56729;52.036;5.332;2023-02-26T06:35:56;0.20;99.90
69533;DHT22;56729;52.036;5.332;2023-02-26T06:36:59;0.20;99.90
69533;DHT22;56729;52.036;5.332;2023-02-26T06:38:02;0.20;99.90
69533;DHT22;56729;52.036;5.332;2023-02-26T06:39:04;0.20;99.90
69533;DHT22;56729;52.036;5.332;2023-02-26T06:40:07;0.20;99.90
69533;DHT22;56729;52.036;5.332;2023-02-26T06:41:11;0.20;99.90
69533;DHT22;56729;52.036;5.332;2023-02-26T06:42:14;0.20;99.90
69533;DHT22;56729;52.036;5.332;2023-02-26T06:43:16;0.20;99.90
69533;DHT22;56729;52.036;5.332;2023-02-26T06:44:18;0.20;99.90
69533;DHT22;56729;52.036;5.332;2023-02-26T06:45:20;0.20;99.90
69533;DHT22;56729;52.036;5.332;2023-02-26T06:46:21;0.20;99.90
69533;DHT22;56729;52.036;5.332;2023-02-26T06:47:24;0.20;99.90
69533;DHT22;56729;52.036;5.332;2023-02-26T06:48:27;0.20;99.90
69533;DHT22;56729;52.036;5.332;2023-02-26T06:49:29;0.20;99.90
69533;DHT22;56729;52.036;5.332;2023-02-26T06:50:33;0.20;99.90
69533;DHT22;56729;52.036;5.332;2023-02-26T06:51:34;0.20;99.90
69533;DHT22;56729;52.036;5.332;2023-02-26T06:52:36;0.30;99.90
69533;DHT22;56729;52.036;5.332;2023-02-26T06:53:39;0.30;99.90
69533;DHT22;56729;52.036;5.332;2023-02-26T06:54:41;0.30;99.90
69533;DHT22;56729;52.036;5.332;2023-02-26T06:55:44;0.30;99.90
69533;DHT22;56729;52.036;5.332;2023-02-26T06:56:47;0.30;99.90
69533;DHT22;56729;52.036;5.332;2023-02-26T06:57:49;0.30;99.90
69533;DHT22;56729;52.036;5.332;2023-02-26T06:58:50;0.30;99.90
69533;DHT22;56729;52.036;5.332;2023-02-26T06:59:52;0.30;99.90
69533;DHT22;56729;52.036;5.332;2023-02-26T07:00:54;0.30;99.90
69533;DHT22;56729;52.036;5.332;2023-02-26T07:01:56;0.30;99.90
69533;DHT22;56729;52.036;5.332;2023-02-26T07:02:58;0.30;99.90
69533;DHT22;56729;52.036;5.332;2023-02-26T07:04:00;0.30;99.90
69533;DHT22;56729;52.036;5.332;2023-02-26T07:05:02;0.30;99.90
69533;DHT22;56729;52.036;5.332;2023-02-26T07:06:05;0.30;99.90
69533;DHT22;56729;52.036;5.332;2023-02-26T07:07:27;0.30;99.90
69533;DHT22;56729;52.036;5.332;2023-02-26T07:08:30;0.30;99.90
69533;DHT22;56729;52.036;5.332;2023-02-26T07:09:32;0.30;99.90
69533;DHT22;56729;52.036;5.332;2023-02-26T07:10:35;0.30;99.90
69533;DHT22;56729;52.036;5.332;2023-02-26T07:11:37;0.30;99.90
69533;DHT22;56729;52.036;5.332;2023-02-26T07:12:39;0.30;99.90
69533;DHT22;56729;52.036;5.332;2023-02-26T07:13:41;0.30;99.90
69533;DHT22;56729;52.036;5.332;2023-02-26T07:14:42;0.30;99.90
69533;DHT22;56729;52.036;5.332;2023-02-26T07:15:46;0.30;99.90
69533;DHT22;56729;52.036;5.332;2023-02-26T07:16:48;0.30;99.90
69533;DHT22;56729;52.036;5.332;2023-02-26T07:17:49;0.30;99.90
69533;DHT22;56729;52.036;5.332;2023-02-26T07:18:51;0.40;99.90
69533;DHT22;56729;52.036;5.332;2023-02-26T07:19:53;0.40;99.90
69533;DHT22;56729;52.036;5.332;2023-02-26T07:20:55;0.40;99.90
69533;DHT22;56729;52.036;5.332;2023-02-26T07:21:57;0.40;99.90
69533;DHT22;56729;52.036;5.332;2023-02-26T07:22:59;0.40;99.90
69533;DHT22;56729;52.036;5.332;2023-02-26T07:24:01;0.40;99.90
69533;DHT22;56729;52.036;5.332;2023-02-26T07:25:04;0.40;99.90
69533;DHT22;56729;52.036;5.332;2023-02-26T07:26:06;0.40;99.90
69533;DHT22;56729;52.036;5.332;2023-02-26T07:27:10;0.40;99.90
69533;DHT22;56729;52.036;5.332;2023-02-26T07:28:12;0.40;99.90
69533;DHT22;56729;52.036;5.332;2023-02-26T07:29:15;0.50;99.90
69533;DHT22;56729;52.036;5.332;2023-02-26T07:30:16;0.50;99.90
69533;DHT22;56729;52.036;5.332;2023-02-26T07:31:18;0.50;99.90
69533;DHT22;56729;52.036;5.332;2023-02-26T07:32:21;0.50;99.90
69533;DHT22;56729;52.036;5.332;2023-02-26T07:33:23;0.60;99.90
69533;DHT22;56729;52.036;5.332;2023-02-26T07:34:27;0.60;99.90
69533;DHT22;56729;52.036;5.332;2023-02-26T07:35:28;0.60;99.90
69533;DHT22;56729;52.036;5.332;2023-02-26T07:36:31;0.60;99.90
69533;DHT22;56729;52.036;5.332;2023-02-26T07:37:33;0.70;99.90
69533;DHT22;56729;52.036;5.332;2023-02-26T07:38:35;0.70;99.90
69533;DHT22;56729;52.036;5.332;2023-02-26T07:39:37;0.70;99.90
69533;DHT22;56729;52.036;5.332;2023-02-26T07:40:39;0.70;99.90
69533;DHT22;56729;52.036;5.332;2023-02-26T07:41:41;0.70;99.90